Time;durP1;ratioP1;P1;durP2;ratioP2;P2;SDS_P1;SDS_P2;PMS_P1;PMS_P2;Temp;Humidity;BMP_temperature;BMP_pressure;BME280_temperature;BME280_humidity;BME280_pressure;Samples;Min_cycle;Max_cycle;Signal;HPM_P1;HPM_P2
2023/05/05 00:00:53;;;;;;;8.23;7.00;;;;;;;7.88;nan;97161.97;4931403;28;20221;-54
2023/05/05 00:03:22;;;;;;;7.00;6.40;;;;;;;7.86;nan;97166.59;4956849;28;20205;-60
2023/05/05 00:05:50;;;;;;;7.37;6.77;;;;;;;7.75;nan;97149.31;4903409;28;20673;-55
2023/05/05 00:08:18;;;;;;;7.27;6.77;;;;;;;7.62;nan;97143.72;4952293;28;20225;-57
2023/05/05 00:10:49;;;;;;;6.83;6.20;;;;;;;7.57;nan;97149.47;4930714;28;20297;-59
2023/05/05 00:13:17;;;;;;;6.13;5.53;;;;;;;7.53;nan;97142.91;4954285;28;20221;-57
2023/05/05 00:15:46;;;;;;;6.83;6.07;;;;;;;7.55;nan;97140.09;4932891;28;20213;-59
2023/05/05 00:18:15;;;;;;;6.80;6.23;;;;;;;7.53;nan;97141.09;4954186;28;21186;-57
2023/05/05 00:20:42;;;;;;;7.83;6.73;;;;;;;7.59;nan;97141.41;4924089;28;20210;-59
2023/05/05 00:23:10;;;;;;;8.00;7.40;;;;;;;7.41;nan;97141.59;4937235;28;20206;-59
2023/05/05 00:25:38;;;;;;;6.90;6.30;;;;;;;7.38;nan;97140.94;4928611;28;20666;-60
2023/05/05 00:28:07;;;;;;;7.77;7.17;;;;;;;7.39;nan;97147.03;4952335;28;20226;-59
2023/05/05 00:30:35;;;;;;;6.87;6.27;;;;;;;7.33;nan;97151.16;4950362;28;20285;-59
2023/05/05 00:33:03;;;;;;;8.23;7.47;;;;;;;7.34;nan;97144.03;4932183;28;20480;-57
2023/05/05 00:35:31;;;;;;;7.23;6.63;;;;;;;7.30;nan;97146.22;4954975;28;20210;-58
2023/05/05 00:37:58;;;;;;;7.47;6.87;;;;;;;7.31;nan;97147.84;4898635;28;20321;-55
2023/05/05 00:40:26;;;;;;;8.10;6.47;;;;;;;7.28;nan;97144.72;4945527;28;20209;-56
2023/05/05 00:42:54;;;;;;;8.33;7.10;;;;;;;7.27;nan;97150.97;4931157;28;20429;-59
2023/05/05 00:45:23;;;;;;;7.20;6.67;;;;;;;7.25;nan;97151.16;4949895;28;20205;-57
2023/05/05 00:47:53;;;;;;;7.53;6.83;;;;;;;7.27;nan;97153.59;4925045;28;20292;-57
2023/05/05 00:50:23;;;;;;;8.03;7.43;;;;;;;7.30;nan;97150.63;4954750;28;20207;-58
2023/05/05 00:52:51;;;;;;;7.90;7.17;;;;;;;7.22;nan;97146.22;4895981;28;20209;-58
2023/05/05 00:55:19;;;;;;;8.23;6.87;;;;;;;7.21;nan;97150.63;4953367;28;20213;-55
2023/05/05 00:57:47;;;;;;;7.17;6.67;;;;;;;7.07;nan;97151.28;4929699;28;20303;-61
2023/05/05 01:00:15;;;;;;;7.80;7.10;;;;;;;7.04;nan;97146.34;4951352;28;20214;-59
2023/05/05 01:02:44;;;;;;;7.87;7.10;;;;;;;6.98;nan;97147.81;4926410;28;20648;-56
2023/05/05 01:05:14;;;;;;;7.10;6.60;;;;;;;6.81;nan;97145.13;4952826;28;20279;-53
2023/05/05 01:07:52;;;;;;;8.33;7.00;;;;;;;6.78;nan;97140.19;4948401;28;20213;-60
2023/05/05 01:10:27;;;;;;;8.27;7.20;;;;;;;6.78;nan;97131.47;4902685;28;20217;-56
2023/05/05 01:13:20;;;;;;;6.50;6.00;;;;;;;6.75;nan;97122.06;4903943;28;20288;-59
2023/05/05 01:15:50;;;;;;;8.33;7.63;;;;;;;6.73;nan;97120.59;4950067;28;20218;-55
2023/05/05 01:18:26;;;;;;;6.63;6.23;;;;;;;6.70;nan;97120.94;4928408;28;20240;-58
2023/05/05 01:20:59;;;;;;;8.10;7.37;;;;;;;6.65;nan;97129.28;4954994;28;20236;-53
2023/05/05 01:23:41;;;;;;;7.53;6.93;;;;;;;6.70;nan;97136.72;4952694;28;20734;-61
2023/05/05 01:26:21;;;;;;;7.67;6.87;;;;;;;6.66;nan;97126.53;4906588;28;20225;-59
2023/05/05 01:29:02;;;;;;;7.93;7.33;;;;;;;6.70;nan;97129.63;4932001;28;20237;-54
2023/05/05 01:31:40;;;;;;;8.03;7.37;;;;;;;6.74;nan;97120.44;4951512;28;20206;-58
2023/05/05 01:34:09;;;;;;;7.83;7.13;;;;;;;6.71;nan;97130.47;4927815;28;20479;-56
2023/05/05 01:36:41;;;;;;;7.50;6.90;;;;;;;6.64;nan;97125.84;4952035;28;20271;-59
2023/05/05 01:39:11;;;;;;;8.30;7.50;;;;;;;6.63;nan;97131.25;4946988;28;20288;-57
2023/05/05 01:41:41;;;;;;;7.53;6.83;;;;;;;6.58;nan;97128.28;4903145;28;20240;-58
2023/05/05 01:44:10;;;;;;;9.17;7.77;;;;;;;6.55;nan;97126.78;4934408;28;20342;-52
2023/05/05 01:46:39;;;;;;;7.40;6.90;;;;;;;6.55;nan;97129.44;4953694;28;20209;-55
2023/05/05 01:49:08;;;;;;;8.43;7.73;;;;;;;6.48;nan;97124.00;4928666;28;20765;-58
2023/05/05 01:51:36;;;;;;;8.10;7.50;;;;;;;6.47;nan;97121.50;4953003;28;20335;-54
2023/05/05 01:54:07;;;;;;;7.70;7.13;;;;;;;6.44;nan;97130.56;4946495;28;20295;-60
2023/05/05 01:56:38;;;;;;;8.40;7.70;;;;;;;6.49;nan;97120.38;4903726;28;20218;-57
2023/05/05 01:59:06;;;;;;;7.77;7.00;;;;;;;6.51;nan;97122.84;4928239;28;20918;-62
2023/05/05 02:01:36;;;;;;;9.23;7.13;;;;;;;6.53;nan;97122.69;4952764;28;20765;-57
2023/05/05 02:04:08;;;;;;;8.37;7.37;;;;;;;6.53;nan;97130.59;4922803;28;20209;-59
2023/05/05 02:06:37;;;;;;;8.07;7.23;;;;;;;6.51;nan;97133.38;4949760;28;20571;-61
2023/05/05 02:09:05;;;;;;;8.60;7.83;;;;;;;6.45;nan;97123.47;4947212;28;20264;-57
2023/05/05 02:11:33;;;;;;;8.20;7.50;;;;;;;6.42;nan;97129.06;4909407;28;20317;-54
2023/05/05 02:14:02;;;;;;;9.00;8.13;;;;;;;6.39;nan;97127.56;4930309;28;22397;-55
2023/05/05 02:16:30;;;;;;;8.23;7.53;;;;;;;6.37;nan;97138.25;4951247;28;20221;-54
2023/05/05 02:18:58;;;;;;;7.93;7.23;;;;;;;6.29;nan;97130.34;4942879;28;20585;-58
2023/05/05 02:21:27;;;;;;;8.80;8.00;;;;;;;6.31;nan;97132.78;4924209;28;20217;-55
2023/05/05 02:23:55;;;;;;;9.00;8.27;;;;;;;6.35;nan;97132.34;4948508;28;20218;-61
2023/05/05 02:26:24;;;;;;;8.73;7.87;;;;;;;6.28;nan;97143.63;4951174;28;20213;-57
2023/05/05 02:28:58;;;;;;;8.10;7.50;;;;;;;6.25;nan;97142.16;4902333;28;20756;-57
2023/05/05 02:31:27;;;;;;;7.93;7.43;;;;;;;6.16;nan;97151.81;4932946;28;20542;-58
2023/05/05 02:33:56;;;;;;;8.80;8.00;;;;;;;6.18;nan;97143.75;4946900;28;20297;-58
2023/05/05 02:36:29;;;;;;;8.47;7.77;;;;;;;6.12;nan;97142.59;4929274;28;20205;-59
2023/05/05 02:39:01;;;;;;;7.70;7.07;;;;;;;6.04;nan;97138.09;4944649;28;20327;-57
2023/05/05 02:41:29;;;;;;;8.30;7.47;;;;;;;6.01;nan;97143.69;4945712;28;20564;-58
2023/05/05 02:43:57;;;;;;;8.20;7.50;;;;;;;5.92;nan;97142.75;4901106;28;20218;-61
2023/05/05 02:46:25;;;;;;;8.40;7.70;;;;;;;5.87;nan;97139.78;4937735;28;20209;-58
2023/05/05 02:48:53;;;;;;;8.43;7.73;;;;;;;5.87;nan;97141.56;4945052;28;20254;-59
2023/05/05 02:51:20;;;;;;;9.30;7.53;;;;;;;5.82;nan;97139.44;4935515;28;21043;-60
2023/05/05 02:53:51;;;;;;;7.83;7.23;;;;;;;5.72;nan;97134.25;4948327;28;20780;-57
2023/05/05 02:56:26;;;;;;;8.97;8.17;;;;;;;5.74;nan;97139.38;4954392;28;20324;-59
2023/05/05 02:58:59;;;;;;;8.27;7.57;;;;;;;5.75;nan;97131.31;4903659;28;20304;-57
2023/05/05 03:01:29;;;;;;;8.60;7.67;;;;;;;5.72;nan;97123.75;4938649;28;20342;-58
2023/05/05 03:04:01;;;;;;;8.83;7.93;;;;;;;5.70;nan;97128.34;4951265;28;20630;-58
2023/05/05 03:06:32;;;;;;;9.23;8.53;;;;;;;5.69;nan;97125.88;4934972;28;20280;-59
2023/05/05 03:09:06;;;;;;;9.70;8.80;;;;;;;5.67;nan;97119.91;4950011;28;20224;-57
2023/05/05 03:11:37;;;;;;;8.77;8.07;;;;;;;5.66;nan;97119.13;4955530;28;20653;-55
2023/05/05 03:14:08;;;;;;;9.20;8.40;;;;;;;5.70;nan;97120.44;4905698;28;20225;-59
2023/05/05 03:16:36;;;;;;;9.23;8.33;;;;;;;5.71;nan;97126.53;4932997;28;21671;-55
2023/05/05 03:19:05;;;;;;;8.40;7.70;;;;;;;5.70;nan;97117.81;4952427;28;20837;-58
2023/05/05 03:21:33;;;;;;;8.57;7.73;;;;;;;5.69;nan;97123.25;4930409;28;21131;-59
2023/05/05 03:24:11;;;;;;;9.13;8.20;;;;;;;5.65;nan;97113.00;4949808;28;20573;-59
2023/05/05 03:26:39;;;;;;;8.30;7.70;;;;;;;5.63;nan;97128.13;4949380;28;20929;-60
2023/05/05 03:29:07;;;;;;;8.37;7.60;;;;;;;5.67;nan;97123.38;4906321;28;20229;-61
2023/05/05 03:31:35;;;;;;;8.03;7.43;;;;;;;5.64;nan;97124.50;4933591;28;20225;-58
2023/05/05 03:34:03;;;;;;;8.50;7.90;;;;;;;5.68;nan;97119.78;4952727;28;20205;-58
2023/05/05 03:36:31;;;;;;;8.73;8.00;;;;;;;5.62;nan;97130.91;4931839;28;21744;-61
2023/05/05 03:38:58;;;;;;;9.03;8.13;;;;;;;5.57;nan;97120.84;4926295;28;20256;-60
2023/05/05 03:41:28;;;;;;;8.67;7.90;;;;;;;5.57;nan;97125.28;4950801;28;20241;-62
2023/05/05 03:43:55;;;;;;;8.50;7.70;;;;;;;5.50;nan;97133.81;4908298;28;20217;-56
2023/05/05 03:46:23;;;;;;;9.57;8.60;;;;;;;5.45;nan;97138.66;4952565;28;20210;-61
2023/05/05 03:48:51;;;;;;;8.33;7.63;;;;;;;5.50;nan;97140.84;4949673;28;20221;-56
2023/05/05 03:51:19;;;;;;;8.87;8.03;;;;;;;5.52;nan;97144.16;4953444;28;20745;-63
2023/05/05 03:53:46;;;;;;;9.47;8.63;;;;;;;5.51;nan;97142.50;4905135;28;20428;-60
2023/05/05 03:56:14;;;;;;;8.83;8.03;;;;;;;5.49;nan;97142.66;4951426;28;20213;-60
2023/05/05 03:58:43;;;;;;;9.30;8.60;;;;;;;5.49;nan;97145.28;4908482;28;20360;-58
2023/05/05 04:01:11;;;;;;;9.03;8.20;;;;;;;5.47;nan;97138.53;4952288;28;20338;-58
2023/05/05 04:03:39;;;;;;;9.27;8.47;;;;;;;5.37;nan;97135.97;4956689;28;20718;-61
2023/05/05 04:06:07;;;;;;;9.50;8.77;;;;;;;5.44;nan;97141.47;4953236;28;20264;-58
2023/05/05 04:08:34;;;;;;;9.37;8.43;;;;;;;5.41;nan;97145.19;4921093;28;21400;-61
2023/05/05 04:11:02;;;;;;;8.63;7.93;;;;;;;5.34;nan;97147.63;4925021;28;20217;-61
2023/05/05 04:13:30;;;;;;;9.90;8.90;;;;;;;5.32;nan;97140.88;4935827;28;20703;-61
2023/05/05 04:15:59;;;;;;;8.57;7.87;;;;;;;5.30;nan;97138.41;4933320;28;20439;-59
2023/05/05 04:18:27;;;;;;;9.33;8.43;;;;;;;5.34;nan;97138.91;4954839;28;20226;-59
2023/05/05 04:20:55;;;;;;;9.33;8.33;;;;;;;5.44;nan;97144.09;4952800;28;20626;-61
2023/05/05 04:23:22;;;;;;;8.77;8.07;;;;;;;5.48;nan;97138.34;4951836;28;20210;-62
2023/05/05 04:25:50;;;;;;;9.80;8.47;;;;;;;5.53;nan;97145.78;4932999;28;20218;-61
2023/05/05 04:28:19;;;;;;;9.13;8.23;;;;;;;5.54;nan;97141.38;4954038;28;20290;-62
2023/05/05 04:30:48;;;;;;;9.13;8.23;;;;;;;5.43;nan;97137.19;4906715;28;20233;-59
2023/05/05 04:33:17;;;;;;;9.80;8.93;;;;;;;5.47;nan;97141.16;4951683;28;20205;-61
2023/05/05 04:35:45;;;;;;;9.17;8.47;;;;;;;5.45;nan;97140.47;4950681;28;20209;-57
2023/05/05 04:38:12;;;;;;;9.00;8.20;;;;;;;5.53;nan;97139.72;4947979;28;20303;-63
2023/05/05 04:40:40;;;;;;;8.80;7.93;;;;;;;5.63;nan;97150.97;4931720;28;20639;-62
2023/05/05 04:43:09;;;;;;;9.27;8.57;;;;;;;5.60;nan;97156.53;4952458;28;20257;-59
2023/05/05 04:45:36;;;;;;;9.33;8.53;;;;;;;5.68;nan;97155.75;4905354;28;20637;-60
2023/05/05 04:48:05;;;;;;;9.90;9.10;;;;;;;5.81;nan;97150.91;4951359;28;20283;-60
2023/05/05 04:50:34;;;;;;;9.97;9.00;;;;;;;5.90;nan;97152.63;4952119;28;20346;-61
2023/05/05 04:53:02;;;;;;;10.97;10.13;;;;;;;6.16;nan;97141.28;4949806;28;20205;-56
2023/05/05 04:55:29;;;;;;;9.60;8.73;;;;;;;6.31;nan;97135.44;4948754;28;20214;-61
2023/05/05 04:57:57;;;;;;;9.83;8.93;;;;;;;6.44;nan;97130.56;4939345;28;20979;-60
2023/05/05 05:00:25;;;;;;;8.87;8.07;;;;;;;6.58;nan;97141.47;4910267;28;20445;-61
2023/05/05 05:02:52;;;;;;;9.30;8.60;;;;;;;6.71;nan;97147.09;4950900;28;20376;-57
2023/05/05 05:05:20;;;;;;;9.47;8.67;;;;;;;6.78;nan;97137.53;4955691;28;20216;-59
2023/05/05 05:07:49;;;;;;;9.13;8.33;;;;;;;6.83;nan;97139.72;4947816;28;20471;-59
2023/05/05 05:10:17;;;;;;;9.30;8.60;;;;;;;6.88;nan;97149.78;4954085;28;20202;-53
2023/05/05 05:12:47;;;;;;;9.53;8.73;;;;;;;6.94;nan;97147.28;4933455;28;20304;-59
2023/05/05 05:15:15;;;;;;;9.63;8.83;;;;;;;7.17;nan;97133.50;4932890;28;20248;-61
2023/05/05 05:17:43;;;;;;;8.60;7.90;;;;;;;7.33;nan;97142.41;4932395;28;20468;-59
2023/05/05 05:20:11;;;;;;;8.57;7.77;;;;;;;7.52;nan;97138.59;4920075;28;20930;-59
2023/05/05 05:22:39;;;;;;;10.40;8.47;;;;;;;7.81;nan;97139.91;4946228;28;20788;-59
2023/05/05 05:25:09;;;;;;;9.07;8.13;;;;;;;7.94;nan;97137.56;4926027;28;20276;-61
2023/05/05 05:27:37;;;;;;;8.57;7.80;;;;;;;8.22;nan;97144.28;4929177;28;20218;-61
2023/05/05 05:30:05;;;;;;;8.77;8.00;;;;;;;8.40;nan;97142.22;4949883;28;20538;-59
2023/05/05 05:32:33;;;;;;;8.83;7.67;;;;;;;8.45;nan;97139.06;4905561;28;20214;-58
2023/05/05 05:35:01;;;;;;;8.37;7.73;;;;;;;8.66;nan;97140.31;4951148;28;20233;-60
2023/05/05 05:37:29;;;;;;;8.00;7.40;;;;;;;8.94;nan;97137.19;4947848;28;20214;-61
2023/05/05 05:39:57;;;;;;;8.23;7.47;;;;;;;9.18;nan;97138.03;4951254;28;20649;-62
2023/05/05 05:42:26;;;;;;;7.50;6.80;;;;;;;9.42;nan;97137.03;4915700;28;20649;-58
2023/05/05 05:44:54;;;;;;;7.53;6.97;;;;;;;9.58;nan;97140.53;4954101;28;21286;-61
2023/05/05 05:47:22;;;;;;;7.20;6.50;;;;;;;9.61;nan;97141.00;4904514;28;20338;-60
2023/05/05 05:49:50;;;;;;;8.57;7.87;;;;;;;9.85;nan;97139.16;4952665;28;20229;-56
2023/05/05 05:52:18;;;;;;;7.83;7.17;;;;;;;9.97;nan;97150.09;4946169;28;20341;-57
2023/05/05 05:54:46;;;;;;;7.90;7.10;;;;;;;10.11;nan;97146.66;4947588;28;20206;-58
2023/05/05 05:57:14;;;;;;;8.23;7.43;;;;;;;10.29;nan;97142.81;4904230;28;20820;-64
2023/05/05 05:59:43;;;;;;;8.23;7.43;;;;;;;10.50;nan;97141.28;4957313;28;20567;-60
2023/05/05 06:02:11;;;;;;;8.20;7.60;;;;;;;11.01;nan;97145.75;4900874;28;20267;-58
2023/05/05 06:04:38;;;;;;;8.57;7.77;;;;;;;11.50;nan;97143.38;4951284;28;20682;-56
2023/05/05 06:07:06;;;;;;;8.00;7.37;;;;;;;11.91;nan;97142.66;4949163;28;20213;-60
2023/05/05 06:09:34;;;;;;;9.53;7.83;;;;;;;11.42;nan;97149.59;4949573;28;20295;-59
2023/05/05 06:12:02;;;;;;;9.70;8.43;;;;;;;10.86;nan;97151.91;4945765;28;20272;-60
2023/05/05 06:14:30;;;;;;;8.13;7.43;;;;;;;11.04;nan;97144.53;4922128;28;20544;-58
2023/05/05 06:17:00;;;;;;;9.90;7.97;;;;;;;11.43;nan;97141.47;4940846;28;20479;-60
2023/05/05 06:19:28;;;;;;;8.70;7.80;;;;;;;11.72;nan;97144.97;4925936;28;20430;-56
2023/05/05 06:21:56;;;;;;;10.17;8.03;;;;;;;11.77;nan;97139.09;4954383;28;20353;-59
2023/05/05 06:24:24;;;;;;;10.47;8.33;;;;;;;11.61;nan;97132.22;4949119;28;20372;-55
2023/05/05 06:26:51;;;;;;;9.50;8.47;;;;;;;11.68;nan;97137.59;4952051;28;20210;-55
2023/05/05 06:29:19;;;;;;;9.37;6.87;;;;;;;11.77;nan;97138.28;4901676;28;21276;-60
2023/05/05 06:31:47;;;;;;;8.63;7.20;;;;;;;12.10;nan;97127.06;4954633;28;20745;-56
2023/05/05 06:34:17;;;;;;;9.60;8.10;;;;;;;11.83;nan;97119.72;4902874;28;20864;-56
2023/05/05 06:36:44;;;;;;;7.57;6.93;;;;;;;11.62;nan;97123.25;4950307;28;20221;-57
2023/05/05 06:39:12;;;;;;;8.57;7.77;;;;;;;11.73;nan;97122.72;4947266;28;20717;-58
2023/05/05 06:41:42;;;;;;;8.50;7.70;;;;;;;11.96;nan;97126.16;4956723;28;20276;-58
2023/05/05 06:44:10;;;;;;;8.97;8.17;;;;;;;12.16;nan;97121.81;4917352;28;20680;-59
2023/05/05 06:46:38;;;;;;;8.17;7.40;;;;;;;12.24;nan;97136.78;4950478;28;20488;-58
2023/05/05 06:49:06;;;;;;;12.57;7.83;;;;;;;12.70;nan;97147.81;4906855;28;20237;-59
2023/05/05 06:51:35;;;;;;;8.27;6.60;;;;;;;12.87;nan;97148.28;4950259;28;20716;-58
2023/05/05 06:54:03;;;;;;;6.57;5.97;;;;;;;13.19;nan;97156.56;4950438;28;20813;-58
2023/05/05 06:56:30;;;;;;;8.17;6.80;;;;;;;13.49;nan;97158.91;4951675;28;20426;-57
2023/05/05 06:58:58;;;;;;;8.70;7.80;;;;;;;14.25;nan;97156.81;4930244;28;20600;-61
2023/05/05 07:01:26;;;;;;;6.97;6.47;;;;;;;14.42;nan;97146.53;4929248;28;20685;-60
2023/05/05 07:03:54;;;;;;;6.87;5.73;;;;;;;14.58;nan;97165.75;4889390;28;20754;-59
2023/05/05 07:06:22;;;;;;;7.73;6.37;;;;;;;14.21;nan;97173.44;4950481;28;20209;-59
2023/05/05 07:08:51;;;;;;;6.97;6.30;;;;;;;14.35;nan;97179.53;4942411;28;20316;-60
2023/05/05 07:11:19;;;;;;;5.90;5.33;;;;;;;14.08;nan;97185.72;4950123;28;20263;-58
2023/05/05 07:13:48;;;;;;;5.77;5.27;;;;;;;13.93;nan;97171.81;4931524;28;20684;-61
2023/05/05 07:16:15;;;;;;;8.30;5.20;;;;;;;14.61;nan;97170.69;4930752;28;20868;-61
2023/05/05 07:18:43;;;;;;;6.57;6.07;;;;;;;14.55;nan;97164.34;4902280;28;20233;-62
2023/05/05 07:21:11;;;;;;;6.40;5.80;;;;;;;14.67;nan;97163.66;4956160;28;20950;-63
2023/05/05 07:23:39;;;;;;;7.83;7.03;;;;;;;14.51;nan;97157.78;4949387;28;20552;-59
2023/05/05 07:26:08;;;;;;;8.77;6.67;;;;;;;14.74;nan;97151.97;4951498;28;20225;-62
2023/05/05 07:28:36;;;;;;;6.77;6.00;;;;;;;14.97;nan;97142.66;4937617;28;20228;-60
2023/05/05 07:31:04;;;;;;;6.70;6.20;;;;;;;14.75;nan;97142.94;4929102;28;20217;-64
2023/05/05 07:33:31;;;;;;;7.20;6.50;;;;;;;14.75;nan;97132.28;4954716;28;20268;-60
2023/05/05 07:35:59;;;;;;;6.83;6.23;;;;;;;14.83;nan;97122.41;4911830;28;20299;-62
2023/05/05 07:38:27;;;;;;;6.07;5.57;;;;;;;15.21;nan;97123.44;4952100;28;20234;-58
2023/05/05 07:40:55;;;;;;;7.00;5.50;;;;;;;15.65;nan;97128.84;4956911;28;20425;-58
2023/05/05 07:43:24;;;;;;;5.47;5.00;;;;;;;15.77;nan;97127.13;4958118;28;20715;-60
2023/05/05 07:45:52;;;;;;;7.50;5.17;;;;;;;15.95;nan;97122.88;4911341;28;20931;-55
2023/05/05 07:48:21;;;;;;;7.20;5.10;;;;;;;15.82;nan;97119.28;4951050;28;20234;-60
2023/05/05 07:50:49;;;;;;;5.67;5.17;;;;;;;15.57;nan;97121.94;4903916;28;20407;-62
2023/05/05 07:53:17;;;;;;;6.93;6.00;;;;;;;15.39;nan;97122.69;4951612;28;21258;-59
2023/05/05 07:55:45;;;;;;;8.17;5.33;;;;;;;15.55;nan;97121.34;4954796;28;20335;-58
2023/05/05 07:58:12;;;;;;;5.63;5.13;;;;;;;15.27;nan;97118.03;4953243;28;20225;-62
2023/05/05 08:00:42;;;;;;;5.30;4.80;;;;;;;15.58;nan;97119.06;4933552;28;20222;-59
2023/05/05 08:03:10;;;;;;;5.47;5.07;;;;;;;15.71;nan;97127.97;4954598;28;20980;-63
2023/05/05 08:05:39;;;;;;;7.20;5.23;;;;;;;15.73;nan;97126.75;4910289;28;20213;-60
2023/05/05 08:08:07;;;;;;;5.77;5.13;;;;;;;15.67;nan;97126.78;4952868;28;21063;-62
2023/05/05 08:10:34;;;;;;;5.40;4.90;;;;;;;15.60;nan;97119.66;4950876;28;20255;-58
2023/05/05 08:13:02;;;;;;;5.33;4.80;;;;;;;15.57;nan;97117.41;4953266;28;20292;-60
2023/05/05 08:15:30;;;;;;;6.57;4.80;;;;;;;16.07;nan;97126.44;4957279;28;20216;-57
2023/05/05 08:17:59;;;;;;;5.13;4.73;;;;;;;16.04;nan;97126.91;4932312;28;20213;-61
2023/05/05 08:20:28;;;;;;;5.47;5.03;;;;;;;16.28;nan;97119.06;4938840;28;20233;-60
2023/05/05 08:22:56;;;;;;;5.00;4.53;;;;;;;16.69;nan;97120.22;4933103;28;20785;-62
2023/05/05 08:25:25;;;;;;;5.17;4.77;;;;;;;16.82;nan;97129.13;4954002;28;20287;-59
2023/05/05 08:27:53;;;;;;;4.80;4.33;;;;;;;17.08;nan;97119.97;4955171;28;20209;-62
2023/05/05 08:30:21;;;;;;;5.03;4.43;;;;;;;17.25;nan;97119.31;4954778;28;20446;-59
2023/05/05 08:32:48;;;;;;;4.63;4.23;;;;;;;16.99;nan;97111.44;4929140;28;20279;-63
2023/05/05 08:35:18;;;;;;;4.47;4.17;;;;;;;17.32;nan;97114.69;4954191;28;20210;-60
2023/05/05 08:37:45;;;;;;;4.57;4.00;;;;;;;17.29;nan;97123.16;4905952;28;20222;-63
2023/05/05 08:40:14;;;;;;;4.10;3.80;;;;;;;17.22;nan;97120.59;4953650;28;20218;-60
2023/05/05 08:42:43;;;;;;;4.57;3.97;;;;;;;17.28;nan;97111.66;4955370;28;20232;-58
2023/05/05 08:45:11;;;;;;;4.73;4.33;;;;;;;17.46;nan;97118.81;4952707;28;20273;-62
2023/05/05 08:47:39;;;;;;;4.87;4.40;;;;;;;18.01;nan;97122.25;4933611;28;20276;-58
2023/05/05 08:50:10;;;;;;;4.33;3.93;;;;;;;17.87;nan;97118.16;4955730;28;21000;-62
2023/05/05 08:52:42;;;;;;;7.03;5.10;;;;;;;17.98;nan;97117.31;4906972;28;20221;-61
2023/05/05 08:55:14;;;;;;;6.53;4.27;;;;;;;17.92;nan;97121.75;4956622;28;20226;-61
2023/05/05 08:57:48;;;;;;;4.73;4.33;;;;;;;17.90;nan;97125.72;4952907;28;20254;-59
2023/05/05 09:00:18;;;;;;;5.77;4.53;;;;;;;18.28;nan;97112.91;4954432;28;20214;-61
2023/05/05 09:02:47;;;;;;;4.60;4.10;;;;;;;18.54;nan;97105.41;4954726;28;20240;-62
2023/05/05 09:05:15;;;;;;;6.60;4.57;;;;;;;18.32;nan;97116.75;4930102;28;20220;-61
2023/05/05 09:07:45;;;;;;;4.53;4.23;;;;;;;18.42;nan;97106.25;4903542;28;21046;-59
2023/05/05 09:10:13;;;;;;;4.53;4.17;;;;;;;18.47;nan;97102.84;4955909;28;20233;-58
2023/05/05 09:12:41;;;;;;;5.10;4.60;;;;;;;18.78;nan;97098.91;4951572;28;20207;-60
2023/05/05 09:15:10;;;;;;;5.47;4.97;;;;;;;18.68;nan;97097.91;4951709;28;20318;-61
2023/05/05 09:17:38;;;;;;;5.47;5.07;;;;;;;18.75;nan;97098.56;4953558;28;20709;-56
2023/05/05 09:20:07;;;;;;;5.30;5.00;;;;;;;18.96;nan;97091.72;4933912;28;20233;-62
2023/05/05 09:22:36;;;;;;;5.17;4.70;;;;;;;19.17;nan;97089.44;4952143;28;20225;-60
2023/05/05 09:25:07;;;;;;;4.67;4.37;;;;;;;18.94;nan;97085.78;4909454;28;20276;-62
2023/05/05 09:27:39;;;;;;;5.37;4.97;;;;;;;18.73;nan;97087.25;4953191;28;20412;-56
2023/05/05 09:30:08;;;;;;;6.07;5.57;;;;;;;18.88;nan;97078.69;4955315;28;20233;-58
2023/05/05 09:32:47;;;;;;;5.30;4.80;;;;;;;19.04;nan;97090.56;4951128;28;20202;-58
2023/05/05 09:35:16;;;;;;;6.23;5.63;;;;;;;18.99;nan;97075.16;4931521;28;20220;-63
2023/05/05 09:37:43;;;;;;;5.30;4.90;;;;;;;19.07;nan;97076.63;4946354;28;20414;-61
2023/05/05 09:40:14;;;;;;;6.63;5.23;;;;;;;19.21;nan;97080.63;4906718;28;20272;-63
2023/05/05 09:42:43;;;;;;;6.00;5.50;;;;;;;19.31;nan;97082.69;4952786;28;20319;-58
2023/05/05 09:45:25;;;;;;;6.73;5.87;;;;;;;19.46;nan;97086.69;4954134;28;20227;-63
2023/05/05 09:47:53;;;;;;;8.07;6.57;;;;;;;19.40;nan;97072.38;4951232;28;20734;-58
2023/05/05 09:50:28;;;;;;;5.87;5.37;;;;;;;19.74;nan;97076.91;4933336;28;20213;-60
2023/05/05 09:52:58;;;;;;;6.20;5.80;;;;;;;19.86;nan;97076.81;4952057;28;20209;-62
2023/05/05 09:55:27;;;;;;;6.57;5.97;;;;;;;19.85;nan;97078.69;4906379;28;20241;-62
2023/05/05 09:57:55;;;;;;;6.53;5.93;;;;;;;19.49;nan;97083.50;4952686;28;20476;-63
2023/05/05 10:00:37;;;;;;;6.37;5.83;;;;;;;19.77;nan;97079.09;4953816;28;20209;-63
2023/05/05 10:03:05;;;;;;;6.43;5.93;;;;;;;19.94;nan;97081.78;4955324;28;20900;-64
2023/05/05 10:05:33;;;;;;;7.33;6.63;;;;;;;19.91;nan;97080.44;4934878;28;21019;-59
2023/05/05 10:08:12;;;;;;;6.73;5.67;;;;;;;20.00;nan;97075.44;4954402;28;20452;-59
2023/05/05 10:10:47;;;;;;;6.27;5.83;;;;;;;19.81;nan;97082.91;4905617;28;20556;-62
2023/05/05 10:13:15;;;;;;;7.90;7.10;;;;;;;19.68;nan;97067.94;4953746;28;20216;-64
2023/05/05 10:15:44;;;;;;;6.17;5.57;;;;;;;20.03;nan;97084.88;4948463;28;20202;-63
2023/05/05 10:18:13;;;;;;;7.97;7.23;;;;;;;19.90;nan;97073.44;4945626;28;20241;-64
2023/05/05 10:20:42;;;;;;;6.73;6.07;;;;;;;20.21;nan;97081.91;4927406;28;20447;-60
2023/05/05 10:23:12;;;;;;;7.03;6.33;;;;;;;20.32;nan;97071.28;4951306;28;20252;-63
2023/05/05 10:25:42;;;;;;;7.20;6.00;;;;;;;20.18;nan;97076.22;4906818;28;20708;-61
2023/05/05 10:28:11;;;;;;;6.10;5.60;;;;;;;19.66;nan;97067.38;4953383;28;20725;-62
2023/05/05 10:30:43;;;;;;;6.50;5.60;;;;;;;19.98;nan;97068.69;4952439;28;20213;-64
2023/05/05 10:33:15;;;;;;;6.70;6.10;;;;;;;20.28;nan;97070.16;4952474;28;20502;-63
2023/05/05 10:36:00;;;;;;;7.63;7.03;;;;;;;20.23;nan;97073.59;4951282;28;20531;-62
2023/05/05 10:38:28;;;;;;;5.67;5.27;;;;;;;20.06;nan;97066.38;4929702;28;20233;-60
2023/05/05 10:40:58;;;;;;;7.33;6.63;;;;;;;20.10;nan;97061.31;4952818;28;20684;-65
2023/05/05 10:43:26;;;;;;;6.97;6.47;;;;;;;20.18;nan;97071.63;4905285;28;20252;-62
2023/05/05 10:45:54;;;;;;;6.57;6.03;;;;;;;19.97;nan;97061.69;4953529;28;20375;-63
2023/05/05 10:48:27;;;;;;;6.33;5.83;;;;;;;19.99;nan;97062.25;4952379;28;20226;-60
2023/05/05 10:50:59;;;;;;;6.90;6.30;;;;;;;20.31;nan;97059.69;4951829;28;20217;-61
2023/05/05 10:53:29;;;;;;;7.20;6.50;;;;;;;20.33;nan;97056.78;4930599;28;20653;-59
2023/05/05 10:56:04;;;;;;;6.83;6.27;;;;;;;20.48;nan;97048.06;4954550;28;20217;-59
2023/05/05 10:58:32;;;;;;;7.40;6.70;;;;;;;20.82;nan;97043.34;4903149;28;20228;-59
2023/05/05 11:01:06;;;;;;;7.93;6.80;;;;;;;20.62;nan;97051.16;4947523;28;20259;-60
2023/05/05 11:03:34;;;;;;;7.50;6.80;;;;;;;20.54;nan;97045.19;4953182;28;20229;-62
2023/05/05 11:06:12;;;;;;;7.53;6.83;;;;;;;20.86;nan;97038.28;4961008;28;20220;-66
2023/05/05 11:08:41;;;;;;;7.80;7.10;;;;;;;20.86;nan;97043.66;4934231;28;20673;-64
2023/05/05 11:11:11;;;;;;;7.60;7.00;;;;;;;20.86;nan;97037.47;4958827;28;20221;-61
2023/05/05 11:13:40;;;;;;;7.03;6.43;;;;;;;20.94;nan;97029.75;4907937;28;20239;-60
2023/05/05 11:16:42;;;;;;;8.00;7.40;;;;;;;21.10;nan;97036.09;4958045;28;20311;-62
2023/05/05 11:19:47;;;;;;;7.93;7.33;;;;;;;21.16;nan;97030.75;4960304;28;21065;-63
2023/05/05 11:22:16;;;;;;;7.47;6.87;;;;;;;21.07;nan;97022.31;4946799;28;20417;-62
2023/05/05 11:24:44;;;;;;;7.83;7.13;;;;;;;21.19;nan;97019.44;4934751;28;20213;-63
2023/05/05 11:27:13;;;;;;;8.00;7.40;;;;;;;21.21;nan;97020.00;4959729;28;20721;-64
2023/05/05 11:30:06;;;;;;;8.47;7.43;;;;;;;21.47;nan;97012.91;4912022;28;20964;-64
2023/05/05 11:32:34;;;;;;;10.77;7.67;;;;;;;21.49;nan;97012.69;4937406;28;20214;-60
2023/05/05 11:35:03;;;;;;;7.70;7.10;;;;;;;21.51;nan;97005.16;4957786;28;20484;-64
2023/05/05 11:37:31;;;;;;;8.13;7.63;;;;;;;21.77;nan;97002.63;4933101;28;20214;-59
2023/05/05 11:40:04;;;;;;;8.10;7.50;;;;;;;21.87;nan;97008.09;4935054;28;21881;-65
2023/05/05 11:42:33;;;;;;;8.70;6.80;;;;;;;22.05;nan;96993.34;4953507;28;21083;-63
2023/05/05 11:45:02;;;;;;;8.27;6.93;;;;;;;22.32;nan;96997.75;4907240;28;20222;-64
2023/05/05 11:47:33;;;;;;;8.43;7.63;;;;;;;22.40;nan;96994.56;4952546;28;20977;-59
2023/05/05 11:50:18;;;;;;;7.37;6.77;;;;;;;22.32;nan;96986.16;4954913;28;20630;-63
2023/05/05 11:52:45;;;;;;;7.97;7.40;;;;;;;22.42;nan;96983.47;4948261;28;20210;-62
2023/05/05 11:55:19;;;;;;;7.93;6.37;;;;;;;22.30;nan;96980.22;4934816;28;20221;-59
2023/05/05 11:57:49;;;;;;;6.50;6.10;;;;;;;22.86;nan;96981.44;4942724;28;20835;-63
2023/05/05 12:00:17;;;;;;;7.33;6.73;;;;;;;23.22;nan;96989.53;4898505;28;20276;-62
2023/05/05 12:02:45;;;;;;;8.87;8.17;;;;;;;22.93;nan;96984.69;4954720;28;21108;-63
2023/05/05 12:05:19;;;;;;;7.30;6.60;;;;;;;23.32;nan;96973.38;4959169;28;20631;-63